sensor_id;sensor_type;location;lat;lon;timestamp;P1;durP1;ratioP1;P2;durP2;ratioP2
11731;SDS011;5922;53.734;10.258;2023-02-12T00:02:25;11.43;;;6.33;;
11731;SDS011;5922;53.734;10.258;2023-02-12T00:04:52;15.67;;;6.40;;
11731;SDS011;5922;53.734;10.258;2023-02-12T00:07:19;11.97;;;6.73;;
11731;SDS011;5922;53.734;10.258;2023-02-12T00:09:48;13.73;;;7.33;;
11731;SDS011;5922;53.734;10.258;2023-02-12T00:12:15;10.83;;;6.73;;
11731;SDS011;5922;53.734;10.258;2023-02-12T00:14:43;13.77;;;7.53;;
11731;SDS011;5922;53.734;10.258;2023-02-12T00:17:10;15.10;;;7.00;;
11731;SDS011;5922;53.734;10.258;2023-02-12T00:19:39;14.30;;;7.47;;
11731;SDS011;5922;53.734;10.258;2023-02-12T00:22:06;11.10;;;7.73;;
11731;SDS011;5922;53.734;10.258;2023-02-12T00:24:35;11.20;;;7.03;;
11731;SDS011;5922;53.734;10.258;2023-02-12T00:27:04;13.77;;;7.57;;
11731;SDS011;5922;53.734;10.258;2023-02-12T00:29:31;13.47;;;8.60;;
11731;SDS011;5922;53.734;10.258;2023-02-12T00:31:59;13.33;;;7.47;;
11731;SDS011;5922;53.734;10.258;2023-02-12T00:34:26;13.87;;;8.47;;
11731;SDS011;5922;53.734;10.258;2023-02-12T00:36:53;16.20;;;8.00;;
11731;SDS011;5922;53.734;10.258;2023-02-12T00:39:20;13.97;;;8.70;;
11731;SDS011;5922;53.734;10.258;2023-02-12T00:41:47;19.20;;;8.13;;
11731;SDS011;5922;53.734;10.258;2023-02-12T00:44:16;13.17;;;8.33;;
11731;SDS011;5922;53.734;10.258;2023-02-12T00:46:43;14.07;;;7.60;;
11731;SDS011;5922;53.734;10.258;2023-02-12T00:49:11;11.97;;;8.20;;
11731;SDS011;5922;53.734;10.258;2023-02-12T00:51:38;16.63;;;7.90;;
11731;SDS011;5922;53.734;10.258;2023-02-12T00:54:05;13.63;;;8.20;;
11731;SDS011;5922;53.734;10.258;2023-02-12T00:56:32;14.00;;;7.40;;
11731;SDS011;5922;53.734;10.258;2023-02-12T00:59:00;9.77;;;6.70;;
11731;SDS011;5922;53.734;10.258;2023-02-12T01:01:28;12.70;;;7.03;;
11731;SDS011;5922;53.734;10.258;2023-02-12T01:03:56;12.70;;;6.60;;
11731;SDS011;5922;53.734;10.258;2023-02-12T01:06:23;10.50;;;6.80;;
11731;SDS011;5922;53.734;10.258;2023-02-12T01:08:50;10.97;;;6.70;;
11731;SDS011;5922;53.734;10.258;2023-02-12T01:11:18;11.07;;;6.77;;
11731;SDS011;5922;53.734;10.258;2023-02-12T01:13:45;20.10;;;8.17;;
11731;SDS011;5922;53.734;10.258;2023-02-12T01:16:13;13.80;;;7.60;;
11731;SDS011;5922;53.734;10.258;2023-02-12T01:18:42;15.80;;;8.33;;
11731;SDS011;5922;53.734;10.258;2023-02-12T01:21:11;26.70;;;8.13;;
11731;SDS011;5922;53.734;10.258;2023-02-12T01:23:38;17.87;;;8.10;;
11731;SDS011;5922;53.734;10.258;2023-02-12T01:26:05;24.13;;;9.40;;
11731;SDS011;5922;53.734;10.258;2023-02-12T01:28:34;19.23;;;8.63;;
11731;SDS011;5922;53.734;10.258;2023-02-12T01:31:06;16.40;;;8.63;;
11731;SDS011;5922;53.734;10.258;2023-02-12T01:33:34;22.97;;;9.97;;
11731;SDS011;5922;53.734;10.258;2023-02-12T01:36:02;14.07;;;9.50;;
11731;SDS011;5922;53.734;10.258;2023-02-12T01:38:30;19.73;;;10.13;;
11731;SDS011;5922;53.734;10.258;2023-02-12T01:41:01;17.57;;;10.27;;
11731;SDS011;5922;53.734;10.258;2023-02-12T01:43:28;17.13;;;10.50;;
11731;SDS011;5922;53.734;10.258;2023-02-12T01:45:57;16.63;;;11.10;;
11731;SDS011;5922;53.734;10.258;2023-02-12T01:48:25;17.90;;;11.10;;
11731;SDS011;5922;53.734;10.258;2023-02-12T01:50:53;13.17;;;9.87;;
11731;SDS011;5922;53.734;10.258;2023-02-12T01:53:23;16.33;;;9.57;;
11731;SDS011;5922;53.734;10.258;2023-02-12T01:55:54;14.53;;;9.37;;
11731;SDS011;5922;53.734;10.258;2023-02-12T01:58:23;13.77;;;9.07;;
11731;SDS011;5922;53.734;10.258;2023-02-12T02:00:50;10.77;;;8.30;;
11731;SDS011;5922;53.734;10.258;2023-02-12T02:03:18;13.23;;;7.63;;
11731;SDS011;5922;53.734;10.258;2023-02-12T02:05:46;10.90;;;7.73;;
11731;SDS011;5922;53.734;10.258;2023-02-12T02:08:14;9.30;;;6.93;;
11731;SDS011;5922;53.734;10.258;2023-02-12T02:10:43;10.40;;;7.60;;
11731;SDS011;5922;53.734;10.258;2023-02-12T02:13:10;10.37;;;7.67;;
11731;SDS011;5922;53.734;10.258;2023-02-12T02:15:55;9.50;;;7.33;;
11731;SDS011;5922;53.734;10.258;2023-02-12T02:18:27;11.23;;;8.10;;
11731;SDS011;5922;53.734;10.258;2023-02-12T02:21:02;11.77;;;8.00;;
11731;SDS011;5922;53.734;10.258;2023-02-12T02:23:38;11.87;;;8.40;;
11731;SDS011;5922;53.734;10.258;2023-02-12T02:26:27;10.33;;;7.90;;
11731;SDS011;5922;53.734;10.258;2023-02-12T02:29:03;9.37;;;7.00;;
11731;SDS011;5922;53.734;10.258;2023-02-12T02:31:36;7.57;;;5.57;;
11731;SDS011;5922;53.734;10.258;2023-02-12T02:34:07;7.07;;;4.57;;
11731;SDS011;5922;53.734;10.258;2023-02-12T02:36:39;6.07;;;5.20;;
11731;SDS011;5922;53.734;10.258;2023-02-12T02:39:09;7.93;;;5.40;;
11731;SDS011;5922;53.734;10.258;2023-02-12T02:41:43;7.60;;;6.03;;
11731;SDS011;5922;53.734;10.258;2023-02-12T02:44:13;7.10;;;5.67;;
11731;SDS011;5922;53.734;10.258;2023-02-12T02:46:45;4.73;;;4.20;;
11731;SDS011;5922;53.734;10.258;2023-02-12T02:49:15;4.10;;;3.70;;
11731;SDS011;5922;53.734;10.258;2023-02-12T02:51:43;4.30;;;3.57;;
11731;SDS011;5922;53.734;10.258;2023-02-12T02:54:12;3.80;;;3.27;;
11731;SDS011;5922;53.734;10.258;2023-02-12T02:56:42;4.50;;;3.20;;
11731;SDS011;5922;53.734;10.258;2023-02-12T02:59:11;4.17;;;2.93;;
11731;SDS011;5922;53.734;10.258;2023-02-12T03:01:42;4.70;;;3.30;;
11731;SDS011;5922;53.734;10.258;2023-02-12T03:04:11;4.80;;;3.60;;
11731;SDS011;5922;53.734;10.258;2023-02-12T03:06:40;4.67;;;3.67;;
11731;SDS011;5922;53.734;10.258;2023-02-12T03:09:12;6.27;;;4.97;;
11731;SDS011;5922;53.734;10.258;2023-02-12T03:11:41;3.70;;;3.33;;
11731;SDS011;5922;53.734;10.258;2023-02-12T03:14:10;3.90;;;2.80;;
11731;SDS011;5922;53.734;10.258;2023-02-12T03:16:39;4.70;;;3.13;;
11731;SDS011;5922;53.734;10.258;2023-02-12T03:19:10;5.23;;;2.93;;
11731;SDS011;5922;53.734;10.258;2023-02-12T03:21:40;4.20;;;3.63;;
11731;SDS011;5922;53.734;10.258;2023-02-12T03:24:10;3.80;;;3.40;;
11731;SDS011;5922;53.734;10.258;2023-02-12T03:26:39;6.07;;;3.80;;
11731;SDS011;5922;53.734;10.258;2023-02-12T03:29:08;3.40;;;3.10;;
11731;SDS011;5922;53.734;10.258;2023-02-12T03:31:37;4.60;;;2.77;;
11731;SDS011;5922;53.734;10.258;2023-02-12T03:34:08;3.83;;;3.20;;
11731;SDS011;5922;53.734;10.258;2023-02-12T03:36:39;5.03;;;3.30;;
11731;SDS011;5922;53.734;10.258;2023-02-12T03:39:10;4.60;;;3.87;;
11731;SDS011;5922;53.734;10.258;2023-02-12T03:41:41;6.50;;;4.40;;
11731;SDS011;5922;53.734;10.258;2023-02-12T03:44:10;4.97;;;3.83;;
11731;SDS011;5922;53.734;10.258;2023-02-12T03:46:40;5.40;;;4.60;;
11731;SDS011;5922;53.734;10.258;2023-02-12T03:49:12;8.33;;;5.23;;
11731;SDS011;5922;53.734;10.258;2023-02-12T03:51:44;7.73;;;5.20;;
11731;SDS011;5922;53.734;10.258;2023-02-12T03:54:14;7.23;;;5.30;;
11731;SDS011;5922;53.734;10.258;2023-02-12T03:56:43;8.20;;;6.20;;
11731;SDS011;5922;53.734;10.258;2023-02-12T03:59:16;10.40;;;7.20;;
11731;SDS011;5922;53.734;10.258;2023-02-12T04:01:43;9.43;;;7.20;;
11731;SDS011;5922;53.734;10.258;2023-02-12T04:04:10;8.57;;;6.63;;
11731;SDS011;5922;53.734;10.258;2023-02-12T04:06:38;8.57;;;6.70;;
11731;SDS011;5922;53.734;10.258;2023-02-12T04:09:06;11.80;;;8.13;;
11731;SDS011;5922;53.734;10.258;2023-02-12T04:11:46;10.87;;;8.03;;
11731;SDS011;5922;53.734;10.258;2023-02-12T04:14:21;13.40;;;8.83;;
11731;SDS011;5922;53.734;10.258;2023-02-12T04:16:50;12.73;;;8.77;;
11731;SDS011;5922;53.734;10.258;2023-02-12T04:19:23;12.67;;;8.57;;
11731;SDS011;5922;53.734;10.258;2023-02-12T04:21:52;14.17;;;8.70;;
11731;SDS011;5922;53.734;10.258;2023-02-12T04:24:26;17.53;;;9.60;;
11731;SDS011;5922;53.734;10.258;2023-02-12T04:26:59;13.80;;;9.07;;
11731;SDS011;5922;53.734;10.258;2023-02-12T04:29:31;15.07;;;9.43;;
11731;SDS011;5922;53.734;10.258;2023-02-12T04:32:03;15.77;;;8.77;;
11731;SDS011;5922;53.734;10.258;2023-02-12T04:34:31;15.50;;;8.03;;
11731;SDS011;5922;53.734;10.258;2023-02-12T04:37:01;12.60;;;7.57;;
11731;SDS011;5922;53.734;10.258;2023-02-12T04:39:30;18.03;;;8.63;;
11731;SDS011;5922;53.734;10.258;2023-02-12T04:42:00;11.83;;;7.50;;
11731;SDS011;5922;53.734;10.258;2023-02-12T04:44:37;14.00;;;7.07;;
11731;SDS011;5922;53.734;10.258;2023-02-12T04:47:06;12.97;;;7.00;;
11731;SDS011;5922;53.734;10.258;2023-02-12T04:49:33;10.87;;;7.13;;
11731;SDS011;5922;53.734;10.258;2023-02-12T04:52:00;15.97;;;7.90;;
11731;SDS011;5922;53.734;10.258;2023-02-12T04:54:28;11.73;;;7.27;;
11731;SDS011;5922;53.734;10.258;2023-02-12T04:56:55;14.27;;;7.80;;
11731;SDS011;5922;53.734;10.258;2023-02-12T04:59:24;13.27;;;7.60;;
11731;SDS011;5922;53.734;10.258;2023-02-12T05:01:51;16.67;;;7.67;;
11731;SDS011;5922;53.734;10.258;2023-02-12T05:04:18;14.20;;;7.57;;
11731;SDS011;5922;53.734;10.258;2023-02-12T05:06:45;12.57;;;8.03;;
11731;SDS011;5922;53.734;10.258;2023-02-12T05:09:14;16.60;;;7.33;;
11731;SDS011;5922;53.734;10.258;2023-02-12T05:11:41;18.17;;;8.30;;
11731;SDS011;5922;53.734;10.258;2023-02-12T05:14:08;16.33;;;8.33;;
11731;SDS011;5922;53.734;10.258;2023-02-12T05:16:37;25.30;;;7.90;;
11731;SDS011;5922;53.734;10.258;2023-02-12T05:19:04;20.00;;;7.53;;
11731;SDS011;5922;53.734;10.258;2023-02-12T05:21:33;20.50;;;7.00;;
11731;SDS011;5922;53.734;10.258;2023-02-12T05:24:00;19.87;;;8.73;;
11731;SDS011;5922;53.734;10.258;2023-02-12T05:26:28;15.07;;;7.60;;
11731;SDS011;5922;53.734;10.258;2023-02-12T05:28:55;21.73;;;7.73;;
11731;SDS011;5922;53.734;10.258;2023-02-12T05:31:22;29.73;;;8.00;;
11731;SDS011;5922;53.734;10.258;2023-02-12T05:33:51;26.50;;;7.60;;
11731;SDS011;5922;53.734;10.258;2023-02-12T05:36:19;30.53;;;8.20;;
11731;SDS011;5922;53.734;10.258;2023-02-12T05:38:46;33.83;;;7.73;;
11731;SDS011;5922;53.734;10.258;2023-02-12T05:41:14;23.77;;;7.37;;
11731;SDS011;5922;53.734;10.258;2023-02-12T05:43:41;29.23;;;8.00;;
11731;SDS011;5922;53.734;10.258;2023-02-12T05:46:11;39.50;;;7.67;;
11731;SDS011;5922;53.734;10.258;2023-02-12T05:48:38;31.80;;;7.83;;
11731;SDS011;5922;53.734;10.258;2023-02-12T05:51:10;23.87;;;6.77;;
11731;SDS011;5922;53.734;10.258;2023-02-12T05:53:38;43.97;;;7.37;;
11731;SDS011;5922;53.734;10.258;2023-02-12T05:56:10;44.87;;;7.50;;
11731;SDS011;5922;53.734;10.258;2023-02-12T05:58:37;22.73;;;6.93;;
11731;SDS011;5922;53.734;10.258;2023-02-12T06:01:08;48.53;;;7.43;;
11731;SDS011;5922;53.734;10.258;2023-02-12T06:03:35;23.63;;;6.70;;
11731;SDS011;5922;53.734;10.258;2023-02-12T06:06:02;40.63;;;7.33;;
11731;SDS011;5922;53.734;10.258;2023-02-12T06:08:31;32.30;;;6.70;;
11731;SDS011;5922;53.734;10.258;2023-02-12T06:10:59;28.20;;;6.57;;
11731;SDS011;5922;53.734;10.258;2023-02-12T06:13:27;22.03;;;6.63;;
11731;SDS011;5922;53.734;10.258;2023-02-12T06:15:54;26.80;;;7.00;;
11731;SDS011;5922;53.734;10.258;2023-02-12T06:18:22;26.93;;;6.67;;
11731;SDS011;5922;53.734;10.258;2023-02-12T06:20:49;24.80;;;6.40;;
11731;SDS011;5922;53.734;10.258;2023-02-12T06:23:18;36.20;;;7.00;;
11731;SDS011;5922;53.734;10.258;2023-02-12T06:25:47;37.20;;;6.50;;
11731;SDS011;5922;53.734;10.258;2023-02-12T06:28:14;24.00;;;6.53;;
11731;SDS011;5922;53.734;10.258;2023-02-12T06:30:41;19.50;;;6.47;;
11731;SDS011;5922;53.734;10.258;2023-02-12T06:33:09;27.63;;;7.23;;
11731;SDS011;5922;53.734;10.258;2023-02-12T06:35:36;24.97;;;7.27;;
11731;SDS011;5922;53.734;10.258;2023-02-12T06:38:04;17.27;;;6.30;;
11731;SDS011;5922;53.734;10.258;2023-02-12T06:40:31;17.23;;;6.83;;
11731;SDS011;5922;53.734;10.258;2023-02-12T06:43:02;14.63;;;6.80;;
11731;SDS011;5922;53.734;10.258;2023-02-12T06:45:29;21.30;;;6.97;;
11731;SDS011;5922;53.734;10.258;2023-02-12T06:47:56;25.77;;;7.63;;
11731;SDS011;5922;53.734;10.258;2023-02-12T06:50:24;17.63;;;7.73;;
11731;SDS011;5922;53.734;10.258;2023-02-12T06:52:51;26.43;;;9.13;;
11731;SDS011;5922;53.734;10.258;2023-02-12T06:55:18;35.63;;;7.77;;
11731;SDS011;5922;53.734;10.258;2023-02-12T06:57:45;31.40;;;7.13;;
11731;SDS011;5922;53.734;10.258;2023-02-12T07:00:14;19.53;;;7.40;;
11731;SDS011;5922;53.734;10.258;2023-02-12T07:02:42;34.40;;;8.33;;
11731;SDS011;5922;53.734;10.258;2023-02-12T07:05:09;43.40;;;7.40;;
11731;SDS011;5922;53.734;10.258;2023-02-12T07:07:37;25.07;;;8.33;;
11731;SDS011;5922;53.734;10.258;2023-02-12T07:10:05;25.43;;;8.33;;
11731;SDS011;5922;53.734;10.258;2023-02-12T07:12:38;18.47;;;8.40;;
11731;SDS011;5922;53.734;10.258;2023-02-12T07:15:06;19.60;;;8.40;;
11731;SDS011;5922;53.734;10.258;2023-02-12T07:17:34;23.43;;;9.17;;
11731;SDS011;5922;53.734;10.258;2023-02-12T07:20:04;19.93;;;7.93;;
11731;SDS011;5922;53.734;10.258;2023-02-12T07:22:34;25.00;;;8.40;;
11731;SDS011;5922;53.734;10.258;2023-02-12T07:25:01;18.13;;;8.33;;
11731;SDS011;5922;53.734;10.258;2023-02-12T07:27:28;22.77;;;8.67;;
11731;SDS011;5922;53.734;10.258;2023-02-12T07:29:56;27.33;;;9.37;;
11731;SDS011;5922;53.734;10.258;2023-02-12T07:32:23;18.87;;;8.30;;
11731;SDS011;5922;53.734;10.258;2023-02-12T07:34:52;28.37;;;9.97;;
11731;SDS011;5922;53.734;10.258;2023-02-12T07:37:21;23.13;;;8.90;;
11731;SDS011;5922;53.734;10.258;2023-02-12T07:39:48;26.60;;;9.67;;
11731;SDS011;5922;53.734;10.258;2023-02-12T07:42:18;21.10;;;9.93;;
11731;SDS011;5922;53.734;10.258;2023-02-12T07:44:45;23.10;;;9.77;;
11731;SDS011;5922;53.734;10.258;2023-02-12T07:47:14;24.33;;;9.33;;
11731;SDS011;5922;53.734;10.258;2023-02-12T07:49:41;23.23;;;9.70;;
11731;SDS011;5922;53.734;10.258;2023-02-12T07:52:10;23.20;;;10.33;;
11731;SDS011;5922;53.734;10.258;2023-02-12T07:54:42;21.43;;;10.17;;
11731;SDS011;5922;53.734;10.258;2023-02-12T07:57:09;23.77;;;10.00;;
11731;SDS011;5922;53.734;10.258;2023-02-12T07:59:38;15.97;;;9.67;;
11731;SDS011;5922;53.734;10.258;2023-02-12T08:02:05;21.80;;;9.70;;
11731;SDS011;5922;53.734;10.258;2023-02-12T08:04:33;21.77;;;10.43;;
11731;SDS011;5922;53.734;10.258;2023-02-12T08:07:00;20.70;;;10.67;;
11731;SDS011;5922;53.734;10.258;2023-02-12T08:09:29;18.87;;;10.83;;
11731;SDS011;5922;53.734;10.258;2023-02-12T08:11:56;22.13;;;11.37;;
11731;SDS011;5922;53.734;10.258;2023-02-12T08:14:25;17.70;;;10.47;;
11731;SDS011;5922;53.734;10.258;2023-02-12T08:16:52;17.73;;;10.50;;
11731;SDS011;5922;53.734;10.258;2023-02-12T08:19:20;20.10;;;10.67;;
11731;SDS011;5922;53.734;10.258;2023-02-12T08:21:48;20.17;;;11.27;;
11731;SDS011;5922;53.734;10.258;2023-02-12T08:24:15;18.53;;;10.83;;
11731;SDS011;5922;53.734;10.258;2023-02-12T08:26:44;17.40;;;11.00;;
11731;SDS011;5922;53.734;10.258;2023-02-12T08:29:12;18.10;;;11.37;;
11731;SDS011;5922;53.734;10.258;2023-02-12T08:31:42;19.33;;;11.23;;
11731;SDS011;5922;53.734;10.258;2023-02-12T08:34:15;21.50;;;11.20;;
11731;SDS011;5922;53.734;10.258;2023-02-12T08:36:42;16.77;;;10.80;;
11731;SDS011;5922;53.734;10.258;2023-02-12T08:39:10;21.07;;;11.20;;
11731;SDS011;5922;53.734;10.258;2023-02-12T08:41:38;22.77;;;10.90;;
11731;SDS011;5922;53.734;10.258;2023-02-12T08:44:07;19.83;;;11.47;;
11731;SDS011;5922;53.734;10.258;2023-02-12T08:46:38;21.50;;;10.53;;
11731;SDS011;5922;53.734;10.258;2023-02-12T08:49:09;19.67;;;10.27;;
11731;SDS011;5922;53.734;10.258;2023-02-12T08:51:38;21.50;;;10.73;;
11731;SDS011;5922;53.734;10.258;2023-02-12T08:54:06;18.50;;;10.73;;
11731;SDS011;5922;53.734;10.258;2023-02-12T08:56:34;19.00;;;10.50;;
11731;SDS011;5922;53.734;10.258;2023-02-12T08:59:04;19.70;;;11.23;;
11731;SDS011;5922;53.734;10.258;2023-02-12T09:01:34;20.87;;;10.83;;
11731;SDS011;5922;53.734;10.258;2023-02-12T09:04:03;21.70;;;12.67;;
11731;SDS011;5922;53.734;10.258;2023-02-12T09:06:31;20.33;;;11.33;;
11731;SDS011;5922;53.734;10.258;2023-02-12T09:09:01;18.07;;;11.07;;
11731;SDS011;5922;53.734;10.258;2023-02-12T09:11:28;18.10;;;10.20;;
11731;SDS011;5922;53.734;10.258;2023-02-12T09:13:56;17.10;;;10.33;;
11731;SDS011;5922;53.734;10.258;2023-02-12T09:16:25;16.97;;;9.93;;
11731;SDS011;5922;53.734;10.258;2023-02-12T09:18:54;17.50;;;10.03;;
11731;SDS011;5922;53.734;10.258;2023-02-12T09:21:21;17.60;;;10.53;;
11731;SDS011;5922;53.734;10.258;2023-02-12T09:23:48;17.60;;;11.57;;
11731;SDS011;5922;53.734;10.258;2023-02-12T09:26:16;16.67;;;10.67;;
11731;SDS011;5922;53.734;10.258;2023-02-12T09:28:49;19.93;;;10.87;;
11731;SDS011;5922;53.734;10.258;2023-02-12T09:31:18;18.30;;;11.43;;
11731;SDS011;5922;53.734;10.258;2023-02-12T09:33:47;20.13;;;12.60;;
11731;SDS011;5922;53.734;10.258;2023-02-12T09:36:16;17.70;;;11.30;;
11731;SDS011;5922;53.734;10.258;2023-02-12T09:38:43;16.03;;;10.00;;
11731;SDS011;5922;53.734;10.258;2023-02-12T09:41:21;14.90;;;9.97;;
11731;SDS011;5922;53.734;10.258;2023-02-12T09:43:52;17.37;;;10.53;;
11731;SDS011;5922;53.734;10.258;2023-02-12T09:46:26;18.23;;;10.73;;
11731;SDS011;5922;53.734;10.258;2023-02-12T09:48:56;15.53;;;10.33;;
11731;SDS011;5922;53.734;10.258;2023-02-12T09:51:29;15.57;;;9.40;;
11731;SDS011;5922;53.734;10.258;2023-02-12T09:53:59;16.23;;;9.37;;
11731;SDS011;5922;53.734;10.258;2023-02-12T09:56:27;14.97;;;9.10;;
11731;SDS011;5922;53.734;10.258;2023-02-12T09:58:57;14.03;;;9.23;;
11731;SDS011;5922;53.734;10.258;2023-02-12T10:01:25;23.30;;;10.77;;
11731;SDS011;5922;53.734;10.258;2023-02-12T10:03:55;18.00;;;10.47;;
11731;SDS011;5922;53.734;10.258;2023-02-12T10:06:23;19.50;;;11.83;;
11731;SDS011;5922;53.734;10.258;2023-02-12T10:08:58;19.20;;;11.43;;
11731;SDS011;5922;53.734;10.258;2023-02-12T10:11:32;17.23;;;10.03;;
11731;SDS011;5922;53.734;10.258;2023-02-12T10:14:03;17.07;;;10.40;;
11731;SDS011;5922;53.734;10.258;2023-02-12T10:16:36;16.60;;;10.03;;
11731;SDS011;5922;53.734;10.258;2023-02-12T10:19:12;19.30;;;11.07;;
11731;SDS011;5922;53.734;10.258;2023-02-12T10:21:44;18.57;;;11.60;;
11731;SDS011;5922;53.734;10.258;2023-02-12T10:24:19;17.63;;;10.30;;
11731;SDS011;5922;53.734;10.258;2023-02-12T10:26:51;19.77;;;10.97;;
11731;SDS011;5922;53.734;10.258;2023-02-12T10:29:23;16.60;;;10.80;;
11731;SDS011;5922;53.734;10.258;2023-02-12T10:37:08;19.67;;;10.03;;
11731;SDS011;5922;53.734;10.258;2023-02-12T10:39:40;19.53;;;10.20;;
11731;SDS011;5922;53.734;10.258;2023-02-12T10:42:09;17.23;;;9.40;;
11731;SDS011;5922;53.734;10.258;2023-02-12T10:44:38;16.93;;;10.37;;
11731;SDS011;5922;53.734;10.258;2023-02-12T10:47:08;14.50;;;9.47;;
11731;SDS011;5922;53.734;10.258;2023-02-12T10:49:36;16.00;;;9.90;;
11731;SDS011;5922;53.734;10.258;2023-02-12T10:52:07;19.10;;;10.53;;
11731;SDS011;5922;53.734;10.258;2023-02-12T10:54:36;15.60;;;10.60;;
11731;SDS011;5922;53.734;10.258;2023-02-12T10:57:07;14.07;;;9.37;;
11731;SDS011;5922;53.734;10.258;2023-02-12T10:59:34;16.33;;;9.87;;
11731;SDS011;5922;53.734;10.258;2023-02-12T11:02:02;16.43;;;8.97;;
11731;SDS011;5922;53.734;10.258;2023-02-12T11:04:30;11.90;;;8.33;;
11731;SDS011;5922;53.734;10.258;2023-02-12T11:07:00;13.93;;;8.93;;
11731;SDS011;5922;53.734;10.258;2023-02-12T11:09:28;19.20;;;8.40;;
11731;SDS011;5922;53.734;10.258;2023-02-12T11:11:56;14.37;;;8.27;;
11731;SDS011;5922;53.734;10.258;2023-02-12T11:14:25;10.70;;;7.47;;
11731;SDS011;5922;53.734;10.258;2023-02-12T11:16:55;12.77;;;8.40;;
11731;SDS011;5922;53.734;10.258;2023-02-12T11:19:24;11.97;;;8.27;;
11731;SDS011;5922;53.734;10.258;2023-02-12T11:22:02;11.43;;;7.63;;
11731;SDS011;5922;53.734;10.258;2023-02-12T11:24:33;13.37;;;8.37;;
11731;SDS011;5922;53.734;10.258;2023-02-12T11:27:19;11.30;;;7.90;;
11731;SDS011;5922;53.734;10.258;2023-02-12T11:30:03;10.27;;;8.43;;
11731;SDS011;5922;53.734;10.258;2023-02-12T11:32:32;12.37;;;8.23;;
11731;SDS011;5922;53.734;10.258;2023-02-12T11:35:03;11.60;;;7.83;;
11731;SDS011;5922;53.734;10.258;2023-02-12T11:37:31;14.47;;;8.80;;
11731;SDS011;5922;53.734;10.258;2023-02-12T11:40:02;11.70;;;7.70;;
11731;SDS011;5922;53.734;10.258;2023-02-12T11:42:30;12.40;;;7.80;;
11731;SDS011;5922;53.734;10.258;2023-02-12T11:45:01;12.27;;;8.10;;
11731;SDS011;5922;53.734;10.258;2023-02-12T11:47:29;12.27;;;7.73;;
11731;SDS011;5922;53.734;10.258;2023-02-12T11:50:01;12.93;;;7.67;;
11731;SDS011;5922;53.734;10.258;2023-02-12T11:52:30;11.60;;;7.73;;
11731;SDS011;5922;53.734;10.258;2023-02-12T11:54:58;10.33;;;7.03;;
11731;SDS011;5922;53.734;10.258;2023-02-12T11:57:34;11.27;;;7.60;;
11731;SDS011;5922;53.734;10.258;2023-02-12T12:00:03;10.90;;;7.23;;
11731;SDS011;5922;53.734;10.258;2023-02-12T12:02:31;10.90;;;7.00;;
11731;SDS011;5922;53.734;10.258;2023-02-12T12:05:05;10.00;;;6.67;;
11731;SDS011;5922;53.734;10.258;2023-02-12T12:07:34;7.43;;;6.07;;
11731;SDS011;5922;53.734;10.258;2023-02-12T12:10:04;9.53;;;6.03;;
11731;SDS011;5922;53.734;10.258;2023-02-12T12:12:36;9.63;;;6.17;;
11731;SDS011;5922;53.734;10.258;2023-02-12T12:15:06;9.67;;;6.50;;
11731;SDS011;5922;53.734;10.258;2023-02-12T12:17:55;7.73;;;5.47;;
11731;SDS011;5922;53.734;10.258;2023-02-12T12:20:42;8.93;;;5.73;;
11731;SDS011;5922;53.734;10.258;2023-02-12T12:23:13;10.00;;;6.37;;
11731;SDS011;5922;53.734;10.258;2023-02-12T12:25:43;7.73;;;5.93;;
11731;SDS011;5922;53.734;10.258;2023-02-12T12:28:16;6.97;;;5.57;;
11731;SDS011;5922;53.734;10.258;2023-02-12T12:30:54;10.37;;;5.40;;
11731;SDS011;5922;53.734;10.258;2023-02-12T12:33:25;8.17;;;5.27;;
11731;SDS011;5922;53.734;10.258;2023-02-12T12:35:58;5.77;;;4.60;;
11731;SDS011;5922;53.734;10.258;2023-02-12T12:38:31;8.03;;;5.10;;
11731;SDS011;5922;53.734;10.258;2023-02-12T12:41:01;8.23;;;5.47;;
11731;SDS011;5922;53.734;10.258;2023-02-12T12:43:39;8.50;;;5.57;;
11731;SDS011;5922;53.734;10.258;2023-02-12T12:52:05;6.47;;;4.50;;
11731;SDS011;5922;53.734;10.258;2023-02-12T12:54:40;5.67;;;4.57;;
11731;SDS011;5922;53.734;10.258;2023-02-12T12:57:11;4.03;;;3.63;;
11731;SDS011;5922;53.734;10.258;2023-02-12T12:59:51;5.13;;;3.43;;
11731;SDS011;5922;53.734;10.258;2023-02-12T13:02:40;4.43;;;3.27;;
11731;SDS011;5922;53.734;10.258;2023-02-12T13:08:03;3.43;;;2.93;;
11731;SDS011;5922;53.734;10.258;2023-02-12T13:10:32;4.10;;;2.83;;
11731;SDS011;5922;53.734;10.258;2023-02-12T13:13:13;3.27;;;2.53;;
11731;SDS011;5922;53.734;10.258;2023-02-12T13:15:44;3.00;;;2.60;;
11731;SDS011;5922;53.734;10.258;2023-02-12T13:18:16;2.30;;;1.97;;
11731;SDS011;5922;53.734;10.258;2023-02-12T13:20:46;4.47;;;1.63;;
11731;SDS011;5922;53.734;10.258;2023-02-12T13:23:20;2.00;;;1.50;;
11731;SDS011;5922;53.734;10.258;2023-02-12T13:25:51;1.60;;;1.30;;
11731;SDS011;5922;53.734;10.258;2023-02-12T13:28:23;1.40;;;1.20;;
11731;SDS011;5922;53.734;10.258;2023-02-12T13:30:54;1.43;;;1.30;;
11731;SDS011;5922;53.734;10.258;2023-02-12T13:33:22;1.30;;;1.20;;
11731;SDS011;5922;53.734;10.258;2023-02-12T13:35:51;1.23;;;1.10;;
11731;SDS011;5922;53.734;10.258;2023-02-12T13:38:22;1.30;;;1.20;;
11731;SDS011;5922;53.734;10.258;2023-02-12T13:40:50;3.37;;;1.43;;
11731;SDS011;5922;53.734;10.258;2023-02-12T13:43:22;2.70;;;1.70;;
11731;SDS011;5922;53.734;10.258;2023-02-12T13:45:56;1.50;;;1.40;;
11731;SDS011;5922;53.734;10.258;2023-02-12T13:48:32;1.93;;;1.47;;
11731;SDS011;5922;53.734;10.258;2023-02-12T13:51:03;1.60;;;1.50;;
11731;SDS011;5922;53.734;10.258;2023-02-12T13:53:40;1.50;;;1.40;;
11731;SDS011;5922;53.734;10.258;2023-02-12T13:56:17;1.77;;;1.30;;
11731;SDS011;5922;53.734;10.258;2023-02-12T13:58:54;1.57;;;1.47;;
11731;SDS011;5922;53.734;10.258;2023-02-12T14:01:40;1.80;;;1.70;;
11731;SDS011;5922;53.734;10.258;2023-02-12T14:04:15;4.13;;;2.30;;
11731;SDS011;5922;53.734;10.258;2023-02-12T14:06:52;2.77;;;2.57;;
11731;SDS011;5922;53.734;10.258;2023-02-12T14:09:23;3.50;;;2.97;;
11731;SDS011;5922;53.734;10.258;2023-02-12T14:11:54;3.60;;;3.10;;
11731;SDS011;5922;53.734;10.258;2023-02-12T14:14:25;3.03;;;2.70;;
11731;SDS011;5922;53.734;10.258;2023-02-12T14:16:54;3.10;;;2.47;;
11731;SDS011;5922;53.734;10.258;2023-02-12T14:19:37;2.60;;;2.40;;
11731;SDS011;5922;53.734;10.258;2023-02-12T14:22:11;2.43;;;2.23;;
11731;SDS011;5922;53.734;10.258;2023-02-12T14:24:49;3.03;;;2.53;;
11731;SDS011;5922;53.734;10.258;2023-02-12T14:27:19;4.33;;;2.50;;
11731;SDS011;5922;53.734;10.258;2023-02-12T14:32:58;2.57;;;2.37;;
11731;SDS011;5922;53.734;10.258;2023-02-12T14:41:21;2.40;;;2.10;;
11731;SDS011;5922;53.734;10.258;2023-02-12T14:46:55;2.37;;;2.17;;
11731;SDS011;5922;53.734;10.258;2023-02-12T14:49:31;2.43;;;2.23;;
11731;SDS011;5922;53.734;10.258;2023-02-12T14:52:02;2.60;;;1.93;;
11731;SDS011;5922;53.734;10.258;2023-02-12T14:54:31;2.43;;;2.13;;
11731;SDS011;5922;53.734;10.258;2023-02-12T14:57:04;3.33;;;2.13;;
11731;SDS011;5922;53.734;10.258;2023-02-12T14:59:33;2.30;;;2.10;;
11731;SDS011;5922;53.734;10.258;2023-02-12T15:02:04;1.90;;;1.80;;
11731;SDS011;5922;53.734;10.258;2023-02-12T15:04:32;2.03;;;1.93;;
11731;SDS011;5922;53.734;10.258;2023-02-12T15:07:02;3.07;;;2.13;;
11731;SDS011;5922;53.734;10.258;2023-02-12T15:09:32;2.67;;;2.47;;
11731;SDS011;5922;53.734;10.258;2023-02-12T15:12:09;3.47;;;2.87;;
11731;SDS011;5922;53.734;10.258;2023-02-12T15:14:41;4.10;;;2.90;;
11731;SDS011;5922;53.734;10.258;2023-02-12T15:17:10;2.70;;;2.30;;
11731;SDS011;5922;53.734;10.258;2023-02-12T15:19:41;3.50;;;2.50;;